sensor_id;sensor_type;location;lat;lon;timestamp;P1;durP1;ratioP1;P2;durP2;ratioP2
77217;SDS011;66214;51.302;17.068;2023-04-15T00:00:58;12.50;;;6.00;;
77217;SDS011;66214;51.302;17.068;2023-04-15T00:03:27;11.60;;;6.80;;
77217;SDS011;66214;51.302;17.068;2023-04-15T00:05:57;17.30;;;7.20;;
77217;SDS011;66214;51.302;17.068;2023-04-15T00:08:25;13.80;;;6.70;;
77217;SDS011;66214;51.302;17.068;2023-04-15T00:10:53;11.10;;;6.20;;
77217;SDS011;66214;51.302;17.068;2023-04-15T00:13:21;14.30;;;7.20;;
77217;SDS011;66214;51.302;17.068;2023-04-15T00:15:49;12.10;;;6.80;;
77217;SDS011;66214;51.302;17.068;2023-04-15T00:18:16;13.40;;;7.60;;
77217;SDS011;66214;51.302;17.068;2023-04-15T00:20:44;13.10;;;7.60;;
77217;SDS011;66214;51.302;17.068;2023-04-15T00:23:12;13.20;;;7.60;;
77217;SDS011;66214;51.302;17.068;2023-04-15T00:25:40;12.20;;;7.40;;
77217;SDS011;66214;51.302;17.068;2023-04-15T00:28:09;14.70;;;7.70;;
77217;SDS011;66214;51.302;17.068;2023-04-15T00:30:37;13.70;;;6.80;;
77217;SDS011;66214;51.302;17.068;2023-04-15T00:33:05;14.20;;;7.40;;
77217;SDS011;66214;51.302;17.068;2023-04-15T00:35:33;10.50;;;6.80;;
77217;SDS011;66214;51.302;17.068;2023-04-15T00:38:01;15.40;;;7.30;;
77217;SDS011;66214;51.302;17.068;2023-04-15T00:40:29;10.90;;;6.10;;
77217;SDS011;66214;51.302;17.068;2023-04-15T00:42:57;13.30;;;7.70;;
77217;SDS011;66214;51.302;17.068;2023-04-15T00:45:25;12.70;;;7.30;;
77217;SDS011;66214;51.302;17.068;2023-04-15T00:47:55;13.40;;;7.30;;
77217;SDS011;66214;51.302;17.068;2023-04-15T00:50:23;13.00;;;7.30;;
77217;SDS011;66214;51.302;17.068;2023-04-15T00:52:51;14.30;;;7.90;;
77217;SDS011;66214;51.302;17.068;2023-04-15T00:55:19;14.30;;;8.30;;
77217;SDS011;66214;51.302;17.068;2023-04-15T00:57:47;14.50;;;8.00;;
77217;SDS011;66214;51.302;17.068;2023-04-15T01:00:15;12.80;;;7.70;;
77217;SDS011;66214;51.302;17.068;2023-04-15T01:02:43;14.20;;;7.50;;
77217;SDS011;66214;51.302;17.068;2023-04-15T01:05:10;13.30;;;7.30;;
77217;SDS011;66214;51.302;17.068;2023-04-15T01:07:38;11.50;;;7.20;;
77217;SDS011;66214;51.302;17.068;2023-04-15T01:13:40;15.20;;;8.00;;
77217;SDS011;66214;51.302;17.068;2023-04-15T01:16:09;15.50;;;7.70;;
77217;SDS011;66214;51.302;17.068;2023-04-15T01:18:38;12.70;;;8.10;;
77217;SDS011;66214;51.302;17.068;2023-04-15T01:21:07;14.70;;;7.40;;
77217;SDS011;66214;51.302;17.068;2023-04-15T01:23:36;14.90;;;7.90;;
77217;SDS011;66214;51.302;17.068;2023-04-15T01:26:06;16.00;;;8.20;;
77217;SDS011;66214;51.302;17.068;2023-04-15T01:28:36;13.00;;;7.70;;
77217;SDS011;66214;51.302;17.068;2023-04-15T01:31:08;13.60;;;7.10;;
77217;SDS011;66214;51.302;17.068;2023-04-15T01:33:40;14.70;;;8.80;;
77217;SDS011;66214;51.302;17.068;2023-04-15T01:36:09;13.00;;;8.00;;
77217;SDS011;66214;51.302;17.068;2023-04-15T01:38:37;15.40;;;8.40;;
77217;SDS011;66214;51.302;17.068;2023-04-15T01:41:05;14.10;;;8.80;;
77217;SDS011;66214;51.302;17.068;2023-04-15T01:43:36;13.80;;;8.00;;
77217;SDS011;66214;51.302;17.068;2023-04-15T01:46:04;13.90;;;8.30;;
77217;SDS011;66214;51.302;17.068;2023-04-15T01:48:33;16.20;;;8.10;;
77217;SDS011;66214;51.302;17.068;2023-04-15T01:51:01;13.60;;;7.20;;
77217;SDS011;66214;51.302;17.068;2023-04-15T01:53:29;12.20;;;7.10;;
77217;SDS011;66214;51.302;17.068;2023-04-15T01:55:57;15.10;;;8.20;;
77217;SDS011;66214;51.302;17.068;2023-04-15T01:58:25;13.50;;;8.80;;
77217;SDS011;66214;51.302;17.068;2023-04-15T02:00:53;16.30;;;7.90;;
77217;SDS011;66214;51.302;17.068;2023-04-15T02:03:24;13.90;;;7.30;;
77217;SDS011;66214;51.302;17.068;2023-04-15T02:05:52;13.10;;;7.70;;
77217;SDS011;66214;51.302;17.068;2023-04-15T02:08:20;11.80;;;7.80;;
77217;SDS011;66214;51.302;17.068;2023-04-15T02:10:49;14.00;;;7.90;;
77217;SDS011;66214;51.302;17.068;2023-04-15T02:13:17;15.80;;;7.90;;
77217;SDS011;66214;51.302;17.068;2023-04-15T02:15:47;12.90;;;7.50;;
77217;SDS011;66214;51.302;17.068;2023-04-15T02:18:15;14.00;;;8.00;;
77217;SDS011;66214;51.302;17.068;2023-04-15T02:20:43;14.30;;;7.80;;
77217;SDS011;66214;51.302;17.068;2023-04-15T02:23:12;12.50;;;7.90;;
77217;SDS011;66214;51.302;17.068;2023-04-15T02:25:40;13.10;;;7.00;;
77217;SDS011;66214;51.302;17.068;2023-04-15T02:28:08;14.10;;;8.70;;
77217;SDS011;66214;51.302;17.068;2023-04-15T02:30:36;13.60;;;7.50;;
77217;SDS011;66214;51.302;17.068;2023-04-15T02:33:04;13.30;;;8.30;;
77217;SDS011;66214;51.302;17.068;2023-04-15T02:35:32;13.40;;;7.10;;
77217;SDS011;66214;51.302;17.068;2023-04-15T02:38:00;12.70;;;7.20;;
77217;SDS011;66214;51.302;17.068;2023-04-15T02:40:29;12.00;;;6.50;;
77217;SDS011;66214;51.302;17.068;2023-04-15T02:42:57;12.80;;;8.40;;
77217;SDS011;66214;51.302;17.068;2023-04-15T02:45:26;15.10;;;7.80;;
77217;SDS011;66214;51.302;17.068;2023-04-15T02:47:54;15.20;;;8.10;;
77217;SDS011;66214;51.302;17.068;2023-04-15T02:50:22;13.80;;;8.10;;
77217;SDS011;66214;51.302;17.068;2023-04-15T02:52:51;15.50;;;8.50;;
77217;SDS011;66214;51.302;17.068;2023-04-15T02:55:19;14.00;;;7.60;;
77217;SDS011;66214;51.302;17.068;2023-04-15T02:57:48;13.60;;;8.00;;
77217;SDS011;66214;51.302;17.068;2023-04-15T03:00:16;13.10;;;7.60;;
77217;SDS011;66214;51.302;17.068;2023-04-15T03:02:45;14.30;;;8.10;;
77217;SDS011;66214;51.302;17.068;2023-04-15T03:05:13;17.20;;;8.80;;
77217;SDS011;66214;51.302;17.068;2023-04-15T03:07:41;15.30;;;8.40;;
77217;SDS011;66214;51.302;17.068;2023-04-15T03:10:09;14.10;;;7.30;;
77217;SDS011;66214;51.302;17.068;2023-04-15T03:12:37;14.10;;;8.10;;
77217;SDS011;66214;51.302;17.068;2023-04-15T03:15:07;14.80;;;7.80;;
77217;SDS011;66214;51.302;17.068;2023-04-15T03:17:35;15.80;;;9.30;;
77217;SDS011;66214;51.302;17.068;2023-04-15T03:20:05;16.30;;;8.00;;
77217;SDS011;66214;51.302;17.068;2023-04-15T03:22:33;19.30;;;9.90;;
77217;SDS011;66214;51.302;17.068;2023-04-15T03:25:01;16.70;;;8.80;;
77217;SDS011;66214;51.302;17.068;2023-04-15T03:27:29;13.10;;;8.50;;
77217;SDS011;66214;51.302;17.068;2023-04-15T03:29:57;14.40;;;8.70;;
77217;SDS011;66214;51.302;17.068;2023-04-15T03:32:25;13.70;;;8.40;;
77217;SDS011;66214;51.302;17.068;2023-04-15T03:34:53;14.50;;;8.30;;
77217;SDS011;66214;51.302;17.068;2023-04-15T03:37:24;15.60;;;8.90;;
77217;SDS011;66214;51.302;17.068;2023-04-15T03:39:52;16.10;;;9.20;;
77217;SDS011;66214;51.302;17.068;2023-04-15T03:42:19;15.80;;;8.90;;
77217;SDS011;66214;51.302;17.068;2023-04-15T03:44:47;15.30;;;9.40;;
77217;SDS011;66214;51.302;17.068;2023-04-15T03:47:15;16.90;;;9.30;;
77217;SDS011;66214;51.302;17.068;2023-04-15T03:49:43;14.90;;;8.90;;
77217;SDS011;66214;51.302;17.068;2023-04-15T03:52:12;13.60;;;8.10;;
77217;SDS011;66214;51.302;17.068;2023-04-15T03:54:39;14.00;;;8.00;;
77217;SDS011;66214;51.302;17.068;2023-04-15T03:57:07;15.70;;;7.80;;
77217;SDS011;66214;51.302;17.068;2023-04-15T03:59:36;16.30;;;8.20;;
77217;SDS011;66214;51.302;17.068;2023-04-15T04:02:04;14.50;;;8.50;;
77217;SDS011;66214;51.302;17.068;2023-04-15T04:04:32;15.10;;;7.30;;
77217;SDS011;66214;51.302;17.068;2023-04-15T04:07:00;15.00;;;8.90;;
77217;SDS011;66214;51.302;17.068;2023-04-15T04:09:28;16.70;;;8.70;;
77217;SDS011;66214;51.302;17.068;2023-04-15T04:11:56;16.10;;;9.00;;
77217;SDS011;66214;51.302;17.068;2023-04-15T04:14:24;12.50;;;6.80;;
77217;SDS011;66214;51.302;17.068;2023-04-15T04:16:56;12.20;;;6.60;;
77217;SDS011;66214;51.302;17.068;2023-04-15T04:19:24;11.20;;;6.50;;
77217;SDS011;66214;51.302;17.068;2023-04-15T04:21:52;11.50;;;6.20;;
77217;SDS011;66214;51.302;17.068;2023-04-15T04:24:23;16.20;;;8.10;;
77217;SDS011;66214;51.302;17.068;2023-04-15T04:26:51;11.90;;;7.00;;
77217;SDS011;66214;51.302;17.068;2023-04-15T04:29:19;12.00;;;6.70;;
77217;SDS011;66214;51.302;17.068;2023-04-15T04:31:47;15.70;;;7.50;;
77217;SDS011;66214;51.302;17.068;2023-04-15T04:34:15;13.50;;;6.50;;
77217;SDS011;66214;51.302;17.068;2023-04-15T04:36:43;13.30;;;6.70;;
77217;SDS011;66214;51.302;17.068;2023-04-15T04:39:11;12.50;;;6.50;;
77217;SDS011;66214;51.302;17.068;2023-04-15T04:41:39;11.40;;;5.10;;
77217;SDS011;66214;51.302;17.068;2023-04-15T04:44:07;10.70;;;5.30;;
77217;SDS011;66214;51.302;17.068;2023-04-15T04:46:34;9.40;;;5.20;;
77217;SDS011;66214;51.302;17.068;2023-04-15T04:49:02;9.30;;;4.90;;
77217;SDS011;66214;51.302;17.068;2023-04-15T04:51:30;10.00;;;4.60;;
77217;SDS011;66214;51.302;17.068;2023-04-15T04:53:59;9.20;;;4.80;;
77217;SDS011;66214;51.302;17.068;2023-04-15T04:56:27;7.50;;;4.10;;
77217;SDS011;66214;51.302;17.068;2023-04-15T04:58:55;9.30;;;4.80;;
77217;SDS011;66214;51.302;17.068;2023-04-15T05:01:23;8.20;;;3.40;;
77217;SDS011;66214;51.302;17.068;2023-04-15T05:03:53;6.80;;;3.60;;
77217;SDS011;66214;51.302;17.068;2023-04-15T05:06:21;10.40;;;4.20;;
77217;SDS011;66214;51.302;17.068;2023-04-15T05:12:23;5.30;;;2.30;;
77217;SDS011;66214;51.302;17.068;2023-04-15T05:14:51;5.50;;;2.30;;
77217;SDS011;66214;51.302;17.068;2023-04-15T05:17:19;5.80;;;2.20;;
77217;SDS011;66214;51.302;17.068;2023-04-15T05:19:47;4.70;;;1.90;;
77217;SDS011;66214;51.302;17.068;2023-04-15T05:22:15;4.10;;;2.00;;
77217;SDS011;66214;51.302;17.068;2023-04-15T05:24:43;5.40;;;2.40;;
77217;SDS011;66214;51.302;17.068;2023-04-15T05:27:11;5.20;;;2.30;;
77217;SDS011;66214;51.302;17.068;2023-04-15T05:29:39;5.20;;;2.50;;
77217;SDS011;66214;51.302;17.068;2023-04-15T05:32:07;5.70;;;2.70;;
77217;SDS011;66214;51.302;17.068;2023-04-15T05:34:35;5.90;;;2.50;;
77217;SDS011;66214;51.302;17.068;2023-04-15T05:37:03;4.90;;;2.20;;
77217;SDS011;66214;51.302;17.068;2023-04-15T05:39:31;4.20;;;2.00;;
77217;SDS011;66214;51.302;17.068;2023-04-15T05:42:00;4.60;;;1.90;;
77217;SDS011;66214;51.302;17.068;2023-04-15T05:44:28;8.00;;;3.20;;
77217;SDS011;66214;51.302;17.068;2023-04-15T05:46:56;6.10;;;2.40;;
77217;SDS011;66214;51.302;17.068;2023-04-15T05:49:24;6.90;;;3.00;;
77217;SDS011;66214;51.302;17.068;2023-04-15T05:51:52;4.80;;;2.60;;
77217;SDS011;66214;51.302;17.068;2023-04-15T05:54:20;5.50;;;2.80;;
77217;SDS011;66214;51.302;17.068;2023-04-15T05:56:49;5.40;;;2.60;;
77217;SDS011;66214;51.302;17.068;2023-04-15T05:59:18;5.90;;;3.20;;
77217;SDS011;66214;51.302;17.068;2023-04-15T06:01:46;5.20;;;2.60;;
77217;SDS011;66214;51.302;17.068;2023-04-15T06:04:14;6.40;;;2.80;;
77217;SDS011;66214;51.302;17.068;2023-04-15T06:06:43;7.20;;;2.90;;
77217;SDS011;66214;51.302;17.068;2023-04-15T06:09:11;5.70;;;2.80;;
77217;SDS011;66214;51.302;17.068;2023-04-15T06:11:39;5.00;;;2.40;;
77217;SDS011;66214;51.302;17.068;2023-04-15T06:14:08;5.80;;;2.60;;
77217;SDS011;66214;51.302;17.068;2023-04-15T06:16:36;6.70;;;3.10;;
77217;SDS011;66214;51.302;17.068;2023-04-15T06:19:04;5.80;;;2.70;;
77217;SDS011;66214;51.302;17.068;2023-04-15T06:21:32;7.00;;;3.20;;
77217;SDS011;66214;51.302;17.068;2023-04-15T06:24:00;5.30;;;2.40;;
77217;SDS011;66214;51.302;17.068;2023-04-15T06:26:29;6.00;;;2.80;;
77217;SDS011;66214;51.302;17.068;2023-04-15T06:28:58;6.90;;;3.10;;
77217;SDS011;66214;51.302;17.068;2023-04-15T06:31:26;5.10;;;2.50;;
77217;SDS011;66214;51.302;17.068;2023-04-15T06:33:54;7.10;;;3.40;;
77217;SDS011;66214;51.302;17.068;2023-04-15T06:36:22;8.50;;;3.30;;
77217;SDS011;66214;51.302;17.068;2023-04-15T06:38:49;7.70;;;3.30;;
77217;SDS011;66214;51.302;17.068;2023-04-15T06:41:18;6.10;;;3.10;;
77217;SDS011;66214;51.302;17.068;2023-04-15T06:43:45;6.20;;;2.90;;
77217;SDS011;66214;51.302;17.068;2023-04-15T06:46:13;5.10;;;2.60;;
77217;SDS011;66214;51.302;17.068;2023-04-15T06:48:41;7.00;;;2.90;;
77217;SDS011;66214;51.302;17.068;2023-04-15T06:51:09;6.50;;;2.90;;
77217;SDS011;66214;51.302;17.068;2023-04-15T06:53:37;6.00;;;2.50;;
77217;SDS011;66214;51.302;17.068;2023-04-15T06:56:08;6.60;;;3.20;;
77217;SDS011;66214;51.302;17.068;2023-04-15T06:58:36;6.00;;;2.60;;
77217;SDS011;66214;51.302;17.068;2023-04-15T07:01:04;6.40;;;2.70;;
77217;SDS011;66214;51.302;17.068;2023-04-15T07:03:32;5.70;;;2.80;;
77217;SDS011;66214;51.302;17.068;2023-04-15T07:06:00;7.10;;;3.50;;
77217;SDS011;66214;51.302;17.068;2023-04-15T07:08:33;6.90;;;3.40;;
77217;SDS011;66214;51.302;17.068;2023-04-15T07:11:04;3.60;;;1.70;;
77217;SDS011;66214;51.302;17.068;2023-04-15T07:13:33;4.30;;;2.00;;
77217;SDS011;66214;51.302;17.068;2023-04-15T07:16:01;5.10;;;2.00;;
77217;SDS011;66214;51.302;17.068;2023-04-15T07:18:29;6.00;;;2.60;;
77217;SDS011;66214;51.302;17.068;2023-04-15T07:20:57;5.90;;;2.40;;
77217;SDS011;66214;51.302;17.068;2023-04-15T07:23:24;4.30;;;1.90;;
77217;SDS011;66214;51.302;17.068;2023-04-15T07:25:52;3.90;;;1.70;;
77217;SDS011;66214;51.302;17.068;2023-04-15T07:28:20;3.90;;;1.60;;
77217;SDS011;66214;51.302;17.068;2023-04-15T07:30:48;4.80;;;2.00;;
77217;SDS011;66214;51.302;17.068;2023-04-15T07:33:16;2.90;;;1.30;;
77217;SDS011;66214;51.302;17.068;2023-04-15T07:35:44;2.90;;;1.30;;
77217;SDS011;66214;51.302;17.068;2023-04-15T07:38:13;4.30;;;1.50;;
77217;SDS011;66214;51.302;17.068;2023-04-15T07:40:41;3.10;;;1.10;;
77217;SDS011;66214;51.302;17.068;2023-04-15T07:43:09;2.80;;;1.50;;
77217;SDS011;66214;51.302;17.068;2023-04-15T07:45:37;3.10;;;1.70;;
77217;SDS011;66214;51.302;17.068;2023-04-15T07:48:05;3.60;;;1.60;;
77217;SDS011;66214;51.302;17.068;2023-04-15T07:50:33;3.70;;;1.30;;
77217;SDS011;66214;51.302;17.068;2023-04-15T07:53:01;7.40;;;2.30;;
77217;SDS011;66214;51.302;17.068;2023-04-15T07:55:29;4.50;;;1.50;;
77217;SDS011;66214;51.302;17.068;2023-04-15T07:57:57;4.50;;;1.30;;
77217;SDS011;66214;51.302;17.068;2023-04-15T08:00:25;3.30;;;1.70;;
77217;SDS011;66214;51.302;17.068;2023-04-15T08:02:53;2.60;;;1.40;;
77217;SDS011;66214;51.302;17.068;2023-04-15T08:05:24;3.90;;;1.80;;
77217;SDS011;66214;51.302;17.068;2023-04-15T08:11:37;2.40;;;1.00;;
77217;SDS011;66214;51.302;17.068;2023-04-15T08:14:03;3.20;;;1.50;;
77217;SDS011;66214;51.302;17.068;2023-04-15T08:16:30;3.80;;;1.60;;
77217;SDS011;66214;51.302;17.068;2023-04-15T08:18:56;3.40;;;1.50;;
77217;SDS011;66214;51.302;17.068;2023-04-15T08:21:24;3.80;;;1.20;;
77217;SDS011;66214;51.302;17.068;2023-04-15T08:23:52;6.90;;;2.00;;
77217;SDS011;66214;51.302;17.068;2023-04-15T08:26:19;3.80;;;1.50;;
77217;SDS011;66214;51.302;17.068;2023-04-15T08:28:47;3.00;;;1.50;;
77217;SDS011;66214;51.302;17.068;2023-04-15T08:34:29;3.30;;;1.60;;
77217;SDS011;66214;51.302;17.068;2023-04-15T08:36:57;3.20;;;1.30;;
77217;SDS011;66214;51.302;17.068;2023-04-15T08:43:02;4.00;;;1.70;;
77217;SDS011;66214;51.302;17.068;2023-04-15T08:45:31;3.10;;;1.30;;
77217;SDS011;66214;51.302;17.068;2023-04-15T08:47:59;3.20;;;1.40;;
77217;SDS011;66214;51.302;17.068;2023-04-15T08:50:28;2.50;;;1.20;;
77217;SDS011;66214;51.302;17.068;2023-04-15T08:52:58;3.30;;;1.30;;
77217;SDS011;66214;51.302;17.068;2023-04-15T08:55:32;3.30;;;1.50;;
77217;SDS011;66214;51.302;17.068;2023-04-15T08:58:03;3.90;;;1.10;;
77217;SDS011;66214;51.302;17.068;2023-04-15T09:00:32;3.90;;;1.20;;
77217;SDS011;66214;51.302;17.068;2023-04-15T09:03:00;2.40;;;1.30;;
77217;SDS011;66214;51.302;17.068;2023-04-15T09:05:31;3.20;;;1.40;;
77217;SDS011;66214;51.302;17.068;2023-04-15T09:08:00;2.40;;;1.10;;
77217;SDS011;66214;51.302;17.068;2023-04-15T09:10:29;2.60;;;1.10;;
77217;SDS011;66214;51.302;17.068;2023-04-15T09:12:58;2.20;;;1.10;;
77217;SDS011;66214;51.302;17.068;2023-04-15T09:15:26;3.20;;;1.30;;
77217;SDS011;66214;51.302;17.068;2023-04-15T09:17:56;3.00;;;1.10;;
77217;SDS011;66214;51.302;17.068;2023-04-15T09:20:24;2.80;;;1.30;;
77217;SDS011;66214;51.302;17.068;2023-04-15T09:22:52;2.80;;;1.30;;
77217;SDS011;66214;51.302;17.068;2023-04-15T09:27:59;2.80;;;1.30;;
77217;SDS011;66214;51.302;17.068;2023-04-15T09:30:29;3.50;;;1.20;;
77217;SDS011;66214;51.302;17.068;2023-04-15T09:32:59;2.70;;;1.20;;
77217;SDS011;66214;51.302;17.068;2023-04-15T09:35:28;2.80;;;1.20;;
77217;SDS011;66214;51.302;17.068;2023-04-15T09:38:05;3.00;;;0.90;;
77217;SDS011;66214;51.302;17.068;2023-04-15T09:40:40;2.30;;;0.80;;
77217;SDS011;66214;51.302;17.068;2023-04-15T09:43:09;2.40;;;1.10;;
77217;SDS011;66214;51.302;17.068;2023-04-15T09:45:47;2.80;;;1.20;;
77217;SDS011;66214;51.302;17.068;2023-04-15T09:48:21;2.90;;;1.10;;
77217;SDS011;66214;51.302;17.068;2023-04-15T09:50:52;3.20;;;1.30;;
77217;SDS011;66214;51.302;17.068;2023-04-15T09:53:21;3.70;;;1.60;;
77217;SDS011;66214;51.302;17.068;2023-04-15T09:55:51;2.10;;;1.20;;
77217;SDS011;66214;51.302;17.068;2023-04-15T09:58:26;2.70;;;0.80;;
77217;SDS011;66214;51.302;17.068;2023-04-15T10:00:57;2.30;;;0.90;;
77217;SDS011;66214;51.302;17.068;2023-04-15T10:03:28;1.50;;;1.00;;
77217;SDS011;66214;51.302;17.068;2023-04-15T10:06:00;3.30;;;1.20;;
77217;SDS011;66214;51.302;17.068;2023-04-15T10:08:31;1.90;;;1.10;;
77217;SDS011;66214;51.302;17.068;2023-04-15T10:11:01;2.50;;;1.10;;
77217;SDS011;66214;51.302;17.068;2023-04-15T10:13:31;2.40;;;0.90;;
77217;SDS011;66214;51.302;17.068;2023-04-15T10:16:14;2.30;;;0.90;;
77217;SDS011;66214;51.302;17.068;2023-04-15T10:18:45;1.70;;;0.70;;
77217;SDS011;66214;51.302;17.068;2023-04-15T10:21:14;2.90;;;1.00;;
77217;SDS011;66214;51.302;17.068;2023-04-15T10:23:46;2.70;;;1.10;;
77217;SDS011;66214;51.302;17.068;2023-04-15T10:26:15;3.10;;;0.80;;
77217;SDS011;66214;51.302;17.068;2023-04-15T10:28:45;1.90;;;1.00;;
77217;SDS011;66214;51.302;17.068;2023-04-15T10:31:16;1.60;;;1.00;;
77217;SDS011;66214;51.302;17.068;2023-04-15T10:33:45;2.30;;;1.00;;
77217;SDS011;66214;51.302;17.068;2023-04-15T10:36:15;1.80;;;0.70;;
77217;SDS011;66214;51.302;17.068;2023-04-15T10:38:44;2.50;;;0.90;;
77217;SDS011;66214;51.302;17.068;2023-04-15T10:43:56;2.40;;;1.10;;
77217;SDS011;66214;51.302;17.068;2023-04-15T10:46:39;1.90;;;0.70;;
77217;SDS011;66214;51.302;17.068;2023-04-15T10:49:10;2.40;;;0.90;;
77217;SDS011;66214;51.302;17.068;2023-04-15T10:51:45;3.30;;;0.80;;
77217;SDS011;66214;51.302;17.068;2023-04-15T10:54:16;1.60;;;0.80;;
77217;SDS011;66214;51.302;17.068;2023-04-15T10:59:36;3.00;;;1.30;;
77217;SDS011;66214;51.302;17.068;2023-04-15T11:02:06;3.60;;;1.00;;
77217;SDS011;66214;51.302;17.068;2023-04-15T11:04:54;1.80;;;0.80;;
77217;SDS011;66214;51.302;17.068;2023-04-15T11:12:44;2.50;;;1.30;;
77217;SDS011;66214;51.302;17.068;2023-04-15T11:15:34;3.10;;;1.00;;
77217;SDS011;66214;51.302;17.068;2023-04-15T11:20:55;2.90;;;1.40;;
77217;SDS011;66214;51.302;17.068;2023-04-15T11:23:31;2.20;;;0.90;;
77217;SDS011;66214;51.302;17.068;2023-04-15T11:26:02;2.10;;;0.90;;
77217;SDS011;66214;51.302;17.068;2023-04-15T11:28:33;3.10;;;0.90;;
77217;SDS011;66214;51.302;17.068;2023-04-15T11:31:06;1.90;;;1.00;;
77217;SDS011;66214;51.302;17.068;2023-04-15T11:33:35;2.70;;;1.20;;
77217;SDS011;66214;51.302;17.068;2023-04-15T11:36:04;2.30;;;0.90;;
77217;SDS011;66214;51.302;17.068;2023-04-15T11:38:33;1.90;;;0.90;;
77217;SDS011;66214;51.302;17.068;2023-04-15T11:41:01;3.20;;;0.90;;
77217;SDS011;66214;51.302;17.068;2023-04-15T11:43:31;2.50;;;0.90;;
77217;SDS011;66214;51.302;17.068;2023-04-15T11:46:01;2.10;;;0.80;;
77217;SDS011;66214;51.302;17.068;2023-04-15T11:48:33;1.40;;;0.60;;
77217;SDS011;66214;51.302;17.068;2023-04-15T11:51:06;1.60;;;0.50;;
77217;SDS011;66214;51.302;17.068;2023-04-15T11:53:46;1.20;;;0.80;;
77217;SDS011;66214;51.302;17.068;2023-04-15T11:56:23;1.90;;;0.60;;
77217;SDS011;66214;51.302;17.068;2023-04-15T11:58:57;2.20;;;0.70;;
77217;SDS011;66214;51.302;17.068;2023-04-15T12:01:35;2.20;;;0.90;;
77217;SDS011;66214;51.302;17.068;2023-04-15T12:04:14;2.30;;;1.10;;
77217;SDS011;66214;51.302;17.068;2023-04-15T12:06:49;2.30;;;0.80;;
77217;SDS011;66214;51.302;17.068;2023-04-15T12:09:17;4.30;;;1.20;;
77217;SDS011;66214;51.302;17.068;2023-04-15T12:11:51;2.00;;;0.80;;
77217;SDS011;66214;51.302;17.068;2023-04-15T12:14:28;0.90;;;0.60;;
77217;SDS011;66214;51.302;17.068;2023-04-15T12:20:24;1.90;;;1.00;;
77217;SDS011;66214;51.302;17.068;2023-04-15T12:22:52;1.50;;;0.60;;
77217;SDS011;66214;51.302;17.068;2023-04-15T12:25:33;1.80;;;0.90;;
77217;SDS011;66214;51.302;17.068;2023-04-15T12:28:09;1.60;;;0.70;;
77217;SDS011;66214;51.302;17.068;2023-04-15T12:30:49;1.60;;;0.80;;
77217;SDS011;66214;51.302;17.068;2023-04-15T12:33:18;2.50;;;0.90;;
77217;SDS011;66214;51.302;17.068;2023-04-15T12:35:46;2.00;;;0.80;;
77217;SDS011;66214;51.302;17.068;2023-04-15T12:38:13;1.50;;;0.70;;
77217;SDS011;66214;51.302;17.068;2023-04-15T12:40:41;3.30;;;1.30;;
77217;SDS011;66214;51.302;17.068;2023-04-15T12:43:09;2.10;;;1.00;;
77217;SDS011;66214;51.302;17.068;2023-04-15T12:45:38;2.00;;;0.70;;
77217;SDS011;66214;51.302;17.068;2023-04-15T12:48:05;2.40;;;0.90;;
77217;SDS011;66214;51.302;17.068;2023-04-15T12:50:35;2.10;;;1.00;;
77217;SDS011;66214;51.302;17.068;2023-04-15T12:53:04;2.90;;;1.10;;
77217;SDS011;66214;51.302;17.068;2023-04-15T12:55:32;1.50;;;0.70;;
77217;SDS011;66214;51.302;17.068;2023-04-15T12:57:59;1.90;;;0.80;;
77217;SDS011;66214;51.302;17.068;2023-04-15T13:00:27;2.60;;;0.80;;
77217;SDS011;66214;51.302;17.068;2023-04-15T13:02:55;1.90;;;0.90;;
77217;SDS011;66214;51.302;17.068;2023-04-15T13:05:24;1.90;;;0.90;;
77217;SDS011;66214;51.302;17.068;2023-04-15T13:07:52;3.20;;;1.20;;
77217;SDS011;66214;51.302;17.068;2023-04-15T13:10:20;2.50;;;1.00;;
77217;SDS011;66214;51.302;17.068;2023-04-15T13:12:48;3.30;;;0.80;;
77217;SDS011;66214;51.302;17.068;2023-04-15T13:15:20;2.50;;;0.80;;
77217;SDS011;66214;51.302;17.068;2023-04-15T13:17:49;1.90;;;1.00;;
77217;SDS011;66214;51.302;17.068;2023-04-15T13:20:17;1.70;;;0.90;;
77217;SDS011;66214;51.302;17.068;2023-04-15T13:22:45;2.50;;;0.70;;
77217;SDS011;66214;51.302;17.068;2023-04-15T13:25:13;1.30;;;0.70;;
77217;SDS011;66214;51.302;17.068;2023-04-15T13:27:41;5.40;;;1.50;;
77217;SDS011;66214;51.302;17.068;2023-04-15T13:30:09;3.40;;;1.60;;
77217;SDS011;66214;51.302;17.068;2023-04-15T13:32:37;2.60;;;0.80;;
77217;SDS011;66214;51.302;17.068;2023-04-15T13:35:07;2.80;;;0.80;;
77217;SDS011;66214;51.302;17.068;2023-04-15T13:37:35;3.40;;;0.90;;
77217;SDS011;66214;51.302;17.068;2023-04-15T13:40:04;2.90;;;1.00;;
77217;SDS011;66214;51.302;17.068;2023-04-15T13:42:34;4.10;;;1.10;;
77217;SDS011;66214;51.302;17.068;2023-04-15T13:45:01;4.70;;;1.10;;
77217;SDS011;66214;51.302;17.068;2023-04-15T13:47:29;3.20;;;1.00;;
77217;SDS011;66214;51.302;17.068;2023-04-15T13:49:57;2.70;;;0.80;;
77217;SDS011;66214;51.302;17.068;2023-04-15T13:52:25;7.50;;;1.00;;
77217;SDS011;66214;51.302;17.068;2023-04-15T13:54:53;2.80;;;1.10;;
77217;SDS011;66214;51.302;17.068;2023-04-15T13:57:21;4.40;;;1.50;;
77217;SDS011;66214;51.302;17.068;2023-04-15T13:59:49;2.90;;;1.10;;
77217;SDS011;66214;51.302;17.068;2023-04-15T14:02:20;3.00;;;1.20;;
77217;SDS011;66214;51.302;17.068;2023-04-15T14:04:48;5.40;;;1.30;;
77217;SDS011;66214;51.302;17.068;2023-04-15T14:07:16;3.50;;;1.20;;
77217;SDS011;66214;51.302;17.068;2023-04-15T14:09:44;2.80;;;1.00;;
77217;SDS011;66214;51.302;17.068;2023-04-15T14:12:12;2.20;;;1.00;;
77217;SDS011;66214;51.302;17.068;2023-04-15T14:14:41;2.50;;;1.10;;
77217;SDS011;66214;51.302;17.068;2023-04-15T14:17:09;3.10;;;1.00;;
77217;SDS011;66214;51.302;17.068;2023-04-15T14:19:37;4.10;;;1.20;;
77217;SDS011;66214;51.302;17.068;2023-04-15T14:22:05;1.40;;;0.70;;
77217;SDS011;66214;51.302;17.068;2023-04-15T14:24:33;1.90;;;0.80;;
77217;SDS011;66214;51.302;17.068;2023-04-15T14:27:01;3.20;;;1.10;;
77217;SDS011;66214;51.302;17.068;2023-04-15T14:29:30;3.30;;;1.50;;
77217;SDS011;66214;51.302;17.068;2023-04-15T14:31:57;3.20;;;1.10;;
77217;SDS011;66214;51.302;17.068;2023-04-15T14:34:26;3.10;;;1.30;;
77217;SDS011;66214;51.302;17.068;2023-04-15T14:36:54;2.70;;;1.20;;
77217;SDS011;66214;51.302;17.068;2023-04-15T14:39:21;5.00;;;2.20;;
77217;SDS011;66214;51.302;17.068;2023-04-15T14:41:49;4.50;;;1.60;;
77217;SDS011;66214;51.302;17.068;2023-04-15T14:44:17;2.90;;;1.30;;
77217;SDS011;66214;51.302;17.068;2023-04-15T14:46:45;6.40;;;2.40;;
77217;SDS011;66214;51.302;17.068;2023-04-15T14:49:13;7.40;;;3.40;;
77217;SDS011;66214;51.302;17.068;2023-04-15T14:51:41;7.00;;;3.60;;
77217;SDS011;66214;51.302;17.068;2023-04-15T14:54:09;5.50;;;2.10;;
77217;SDS011;66214;51.302;17.068;2023-04-15T14:56:37;3.00;;;1.40;;
77217;SDS011;66214;51.302;17.068;2023-04-15T14:59:05;8.10;;;2.80;;
77217;SDS011;66214;51.302;17.068;2023-04-15T15:01:34;5.50;;;2.20;;
77217;SDS011;66214;51.302;17.068;2023-04-15T15:04:02;5.70;;;2.30;;
77217;SDS011;66214;51.302;17.068;2023-04-15T15:06:30;4.40;;;1.60;;
77217;SDS011;66214;51.302;17.068;2023-04-15T15:08:58;4.40;;;2.00;;
77217;SDS011;66214;51.302;17.068;2023-04-15T15:11:28;7.70;;;2.30;;
77217;SDS011;66214;51.302;17.068;2023-04-15T15:13:56;5.40;;;1.90;;
77217;SDS011;66214;51.302;17.068;2023-04-15T15:16:25;7.10;;;2.80;;
77217;SDS011;66214;51.302;17.068;2023-04-15T15:18:54;4.40;;;1.80;;